Accueil
METAR-TAF:

METAR-TAF

Aéroports :

Nouméa, Nouvelle-Calédonie

Aéroport de Magenta

latitude: 22-15-30S, longitude: 166-28-22E, altitude: 3 m

METAR: absent

Heure: 18:03 (07:03 UTC)

Prévision

Le bulletin a été fait il y a 14 heures et 3 minutes, à 17:00 UTC
Prévision valable du 26 à 18 UTC au 27 à 18 UTC
Vent 2 kt de direction variable
Visibilité 10 km ou plus
Nuages épars à une hauteur de 2500 ft
Nuages fragmentés à une hauteur de 4000 ft
Probabilité 40% :
Temporairement
du 26 à 18 UTC au 26 à 20 UTC
Visibilité: 4000 m
averses de pluie
Evoluant progressivement
du 26 à 22 UTC au 26 à 24 UTC
Vent 12 kt de sud/sud-est

TAF: NWWM 261700Z 2618/2718 VRB02KT 9999 SCT025 BKN040 PROB40 TEMPO 2618/2620 4000 SHRA BECMG 2622/2624 15012KT

Observations et prévisions météorologiques de plus de 4000 aéroports (messages METAR et TAF).

Les stations disponibles sont représentées par des disques jaunes et rouges sur la carte.

Passer la souris dessus pour voir le nom de la station.

Cliquer dessus pour voir les observations et prévisions météorologiques.

Pour changer de carte: cliquez sur les boutons verts avec une croix noire pour zoomer, sur le bouton vert avec un tiret pour effectuer un zoom arrière, ou sur les flèches vertes pour les cartes adjacentes.


METAR-TAF: